createdAt,value
2022-08-25T00:01:46.149Z,5.05
2022-08-25T00:04:16.447Z,3.85
2022-08-25T00:06:47.697Z,4.80
2022-08-25T00:09:19.357Z,4.22
2022-08-25T00:11:49.275Z,3.80
2022-08-25T00:14:36.889Z,4.10
2022-08-25T00:17:06.596Z,3.90
2022-08-25T00:19:38.146Z,3.75
2022-08-25T00:22:07.043Z,3.80
2022-08-25T00:24:34.200Z,4.00
2022-08-25T00:27:01.861Z,4.07
2022-08-25T00:29:30.861Z,4.60
2022-08-25T00:31:59.361Z,3.38
2022-08-25T00:34:34.068Z,3.67
2022-08-25T00:37:03.388Z,3.95
2022-08-25T00:39:30.858Z,3.95
2022-08-25T00:42:00.148Z,3.63
2022-08-25T00:44:30.411Z,4.35
2022-08-25T00:47:01.083Z,4.50
2022-08-25T00:49:37.588Z,4.47
2022-08-25T00:52:28.121Z,4.30
2022-08-25T00:55:12.577Z,3.97
2022-08-25T00:57:49.824Z,3.80
2022-08-25T01:00:30.817Z,4.05
2022-08-25T01:02:58.365Z,4.63
2022-08-25T01:05:27.497Z,4.22
2022-08-25T01:07:59.690Z,4.32
2022-08-25T01:10:31.095Z,4.28
2022-08-25T01:13:23.827Z,4.32
2022-08-25T01:15:55.251Z,5.18
2022-08-25T01:18:25.888Z,3.65
2022-08-25T01:20:56.146Z,4.38
2022-08-25T01:23:24.744Z,4.55
2022-08-25T01:26:30.338Z,4.63
2022-08-25T01:29:19.624Z,3.72
2022-08-25T01:31:50.628Z,5.50
2022-08-25T01:34:21.387Z,4.15
2022-08-25T01:36:49.182Z,4.30
2022-08-25T01:39:16.651Z,4.00
2022-08-25T01:42:06.855Z,4.10
2022-08-25T01:44:36.725Z,3.80
2022-08-25T01:47:06.146Z,4.15
2022-08-25T01:49:33.476Z,4.10
2022-08-25T01:52:33.398Z,4.82
2022-08-25T01:55:00.448Z,4.20
2022-08-25T01:57:31.603Z,4.38
2022-08-25T01:59:59.255Z,5.03
2022-08-25T02:02:26.455Z,4.60
2022-08-25T02:04:53.947Z,5.20
2022-08-25T02:07:22.187Z,5.03
2022-08-25T02:09:49.240Z,5.35
2022-08-25T02:12:16.290Z,5.40
2022-08-25T02:14:43.305Z,5.88
2022-08-25T02:17:10.448Z,5.32
2022-08-25T02:19:37.746Z,4.68
2022-08-25T02:22:05.737Z,5.80
2022-08-25T02:24:32.891Z,5.15
2022-08-25T02:26:59.964Z,6.00
2022-08-25T02:29:27.235Z,5.20
2022-08-25T02:31:54.266Z,5.15
2022-08-25T02:34:21.287Z,5.57
2022-08-25T02:36:48.357Z,4.93
2022-08-25T02:39:15.392Z,4.35
2022-08-25T02:41:42.830Z,4.70
2022-08-25T02:44:09.963Z,4.88
2022-08-25T02:46:38.367Z,4.50
2022-08-25T02:49:06.952Z,3.67
2022-08-25T02:51:35.009Z,3.97
2022-08-25T02:54:05.303Z,3.97
2022-08-25T02:56:33.330Z,4.18
2022-08-25T02:59:01.957Z,3.70
2022-08-25T03:01:31.222Z,4.10
2022-08-25T03:03:58.875Z,3.95
2022-08-25T03:06:28.082Z,4.05
2022-08-25T03:08:56.019Z,3.35
2022-08-25T03:11:24.025Z,3.72
2022-08-25T03:13:51.313Z,3.65
2022-08-25T03:16:19.696Z,3.25
2022-08-25T03:18:48.450Z,3.30
2022-08-25T03:21:16.408Z,3.78
2022-08-25T03:23:45.845Z,3.25
2022-08-25T03:26:31.632Z,3.70
2022-08-25T03:28:59.134Z,3.90
2022-08-25T03:31:27.778Z,4.03
2022-08-25T03:33:55.492Z,4.00
2022-08-25T03:36:23.037Z,3.60
2022-08-25T03:38:53.533Z,4.00
2022-08-25T03:41:29.813Z,4.47
2022-08-25T03:43:57.369Z,4.07
2022-08-25T03:46:32.824Z,4.35
2022-08-25T03:49:03.406Z,4.25
2022-08-25T03:51:53.263Z,5.07
2022-08-25T03:54:24.841Z,4.07
2022-08-25T03:56:52.273Z,4.53
2022-08-25T03:59:19.611Z,5.32
2022-08-25T04:01:52.617Z,4.20
2022-08-25T04:04:21.843Z,4.47
2022-08-25T04:06:48.862Z,5.38
2022-08-25T04:09:16.022Z,5.35
2022-08-25T04:11:43.015Z,5.10
2022-08-25T04:14:10.321Z,4.82
2022-08-25T04:16:43.212Z,4.70
2022-08-25T04:19:10.671Z,4.57
2022-08-25T04:21:40.587Z,4.32
2022-08-25T04:24:10.406Z,4.50
2022-08-25T04:26:42.454Z,4.40
2022-08-25T04:29:11.893Z,4.22
2022-08-25T04:31:46.959Z,4.93
2022-08-25T04:34:30.467Z,4.68
2022-08-25T04:37:03.986Z,4.20
2022-08-25T04:39:31.385Z,4.65
2022-08-25T04:42:00.883Z,4.55
2022-08-25T04:44:30.148Z,4.22
2022-08-25T04:46:57.299Z,4.65
2022-08-25T04:49:24.522Z,4.22
2022-08-25T04:51:51.527Z,4.40
2022-08-25T04:54:22.272Z,4.25
2022-08-25T04:56:54.107Z,4.57
2022-08-25T04:59:23.579Z,4.00
2022-08-25T05:01:58.710Z,3.72
2022-08-25T05:04:28.269Z,4.68
2022-08-25T05:06:57.249Z,3.90
2022-08-25T05:09:25.420Z,4.22
2022-08-25T05:11:53.770Z,5.30
2022-08-25T05:14:22.648Z,4.38
2022-08-25T05:16:54.932Z,4.30
2022-08-25T05:19:24.027Z,4.82
2022-08-25T05:21:52.205Z,4.20
2022-08-25T05:24:20.326Z,4.78
2022-08-25T05:26:47.639Z,4.85
2022-08-25T05:29:15.628Z,5.20
2022-08-25T05:31:48.321Z,4.70
2022-08-25T05:34:18.840Z,5.47
2022-08-25T05:36:46.281Z,5.30
2022-08-25T05:39:13.448Z,4.88
2022-08-25T05:41:40.823Z,4.47
2022-08-25T05:44:08.522Z,4.80
2022-08-25T05:46:35.744Z,5.05
2022-08-25T05:49:02.872Z,5.85
2022-08-25T05:51:29.910Z,4.95
2022-08-25T05:53:56.987Z,4.47
2022-08-25T05:56:24.042Z,5.18
2022-08-25T05:58:51.228Z,4.43
2022-08-25T06:01:47.434Z,4.88
2022-08-25T06:04:17.968Z,4.38
2022-08-25T06:06:45.030Z,4.28
2022-08-25T06:09:12.693Z,4.22
2022-08-25T06:11:40.859Z,4.55
2022-08-25T06:14:11.557Z,3.92
2022-08-25T06:16:42.064Z,4.82
2022-08-25T06:19:10.947Z,4.60
2022-08-25T06:21:39.727Z,4.25
2022-08-25T06:24:12.046Z,3.67
2022-08-25T06:26:41.835Z,4.53
2022-08-25T06:29:08.947Z,3.95
2022-08-25T06:31:36.644Z,4.22
2022-08-25T06:34:03.708Z,3.80
2022-08-25T06:36:30.718Z,4.95
2022-08-25T06:38:57.826Z,4.47
2022-08-25T06:41:25.677Z,3.78
2022-08-25T06:44:06.075Z,3.90
2022-08-25T06:46:36.674Z,4.18
2022-08-25T06:49:06.584Z,4.68
2022-08-25T06:51:37.400Z,3.53
2022-08-25T06:54:07.469Z,4.38
2022-08-25T06:56:34.722Z,3.67
2022-08-25T06:59:08.044Z,3.35
2022-08-25T07:01:37.469Z,3.33
2022-08-25T07:04:10.286Z,3.72
2022-08-25T07:06:37.909Z,3.63
2022-08-25T07:09:07.820Z,4.00
2022-08-25T07:11:35.487Z,3.58
2022-08-25T07:14:06.216Z,4.50
2022-08-25T07:16:35.053Z,4.20
2022-08-25T07:19:03.619Z,3.92
2022-08-25T07:21:35.786Z,3.10
2022-08-25T07:24:07.852Z,3.42
2022-08-25T07:26:38.144Z,3.45
2022-08-25T07:29:12.151Z,4.37
2022-08-25T07:31:40.039Z,4.70
2022-08-25T07:34:26.932Z,3.42
2022-08-25T07:36:57.005Z,4.20
2022-08-25T07:39:25.839Z,3.65
2022-08-25T07:41:53.922Z,4.18
2022-08-25T07:44:22.857Z,3.55
2022-08-25T07:46:51.556Z,4.30
2022-08-25T07:49:23.112Z,3.67
2022-08-25T07:52:04.233Z,3.90
2022-08-25T07:54:37.871Z,3.88
2022-08-25T07:57:08.279Z,3.72
2022-08-25T07:59:40.278Z,3.67
2022-08-25T08:02:18.958Z,4.30
2022-08-25T08:04:49.826Z,3.35
2022-08-25T08:07:43.230Z,3.88
2022-08-25T08:11:00.580Z,3.63
2022-08-25T08:13:02.600Z,3.42
2022-08-25T08:15:30.299Z,3.47
2022-08-25T08:17:59.671Z,3.80
2022-08-25T08:20:28.869Z,4.03
2022-08-25T08:22:55.960Z,3.78
2022-08-25T08:25:26.459Z,3.05
2022-08-25T08:27:55.648Z,4.13
2022-08-25T08:30:26.287Z,3.70
2022-08-25T08:33:11.657Z,4.00
2022-08-25T08:35:43.409Z,4.30
2022-08-25T08:38:17.313Z,4.57
2022-08-25T08:45:31.093Z,4.30
2022-08-25T08:48:40.472Z,3.78
2022-08-25T08:51:36.021Z,4.13
2022-08-25T08:54:16.628Z,4.40
2022-08-25T08:56:50.492Z,3.65
2022-08-25T08:59:30.183Z,3.58
2022-08-25T09:02:02.731Z,3.38
2022-08-25T09:04:44.374Z,3.50
2022-08-25T09:07:20.910Z,3.50
2022-08-25T09:09:48.662Z,3.83
2022-08-25T09:12:51.266Z,4.32
2022-08-25T09:16:20.592Z,2.80
2022-08-25T09:19:32.116Z,3.80
2022-08-25T09:22:46.781Z,2.95
2022-08-25T09:25:52.674Z,3.28
2022-08-25T09:28:32.137Z,2.60
2022-08-25T09:31:29.504Z,2.90
2022-08-25T09:34:02.395Z,3.05
2022-08-25T09:36:34.328Z,3.03
2022-08-25T09:39:07.756Z,2.83
2022-08-25T09:41:51.205Z,3.38
2022-08-25T09:44:28.117Z,3.00
2022-08-25T09:47:02.456Z,2.60
2022-08-25T09:50:01.576Z,3.53
2022-08-25T09:52:53.402Z,3.15
2022-08-25T09:55:32.467Z,3.67
2022-08-25T09:58:00.183Z,2.83
2022-08-25T10:00:35.056Z,3.08
2022-08-25T10:03:24.600Z,3.30
2022-08-25T10:06:15.839Z,3.03
2022-08-25T10:08:44.023Z,3.65
2022-08-25T10:11:29.028Z,3.00
2022-08-25T10:14:27.033Z,3.20
2022-08-25T10:17:33.415Z,3.45
2022-08-25T10:20:33.080Z,2.80
2022-08-25T10:23:19.170Z,2.97
2022-08-25T10:25:57.843Z,3.45
2022-08-25T10:29:12.183Z,3.50
2022-08-25T10:31:59.322Z,3.08
2022-08-25T10:34:55.434Z,2.97
2022-08-25T10:38:09.198Z,4.10
2022-08-25T10:41:07.370Z,3.05
2022-08-25T10:43:51.430Z,3.58
2022-08-25T10:46:52.947Z,3.20
2022-08-25T10:49:38.549Z,3.30
2022-08-25T10:52:37.153Z,4.00
2022-08-25T10:55:26.925Z,3.90
2022-08-25T10:58:18.713Z,3.75
2022-08-25T11:01:11.274Z,3.38
2022-08-25T11:03:39.887Z,3.20
2022-08-25T11:06:19.936Z,3.85
2022-08-25T11:09:05.272Z,3.85
2022-08-25T11:11:59.382Z,3.67
2022-08-25T11:15:02.674Z,4.28
2022-08-25T11:18:00.810Z,4.85
2022-08-25T11:20:33.883Z,3.53
2022-08-25T11:23:19.953Z,5.07
2022-08-25T11:25:53.801Z,3.88
2022-08-25T11:28:58.174Z,4.32
2022-08-25T11:31:27.403Z,3.78
2022-08-25T11:34:02.673Z,3.90
2022-08-25T11:36:36.861Z,3.83
2022-08-25T11:39:37.270Z,4.40
2022-08-25T11:42:49.158Z,4.25
2022-08-25T11:45:54.208Z,3.53
2022-08-25T11:48:54.532Z,4.13
2022-08-25T11:51:47.720Z,4.35
2022-08-25T11:54:43.087Z,4.80
2022-08-25T11:57:26.560Z,4.05
2022-08-25T11:59:53.736Z,4.07
2022-08-25T12:02:41.038Z,4.78
2022-08-25T12:05:17.387Z,3.83
2022-08-25T12:07:47.738Z,3.90
2022-08-25T12:10:21.591Z,4.20
2022-08-25T12:13:04.767Z,4.03
2022-08-25T12:15:57.294Z,3.70
2022-08-25T12:18:27.434Z,4.47
2022-08-25T12:20:57.020Z,4.93
2022-08-25T12:24:06.082Z,4.05
2022-08-25T12:26:54.920Z,4.38
2022-08-25T12:29:49.727Z,3.80
2022-08-25T12:32:56.200Z,3.88
2022-08-25T12:35:42.652Z,3.88
2022-08-25T12:38:27.957Z,3.58
2022-08-25T12:41:07.499Z,3.42
2022-08-25T12:43:48.036Z,4.03
2022-08-25T12:46:27.939Z,3.30
2022-08-25T12:49:32.814Z,3.58
2022-08-25T12:52:28.056Z,4.28
2022-08-25T12:55:05.429Z,3.60
2022-08-25T12:57:58.839Z,3.30
2022-08-25T13:00:52.591Z,4.13
2022-08-25T13:04:14.554Z,4.03
2022-08-25T13:07:22.535Z,3.33
2022-08-25T13:10:42.738Z,3.60
2022-08-25T13:13:14.400Z,4.28
2022-08-25T13:16:02.215Z,4.40
2022-08-25T13:18:34.687Z,4.20
2022-08-25T13:21:18.794Z,3.53
2022-08-25T13:24:22.985Z,3.13
2022-08-25T13:27:06.316Z,3.88
2022-08-25T13:29:48.696Z,3.95
2022-08-25T13:32:31.995Z,3.47
2022-08-25T13:35:22.209Z,3.92
2022-08-25T13:37:50.176Z,4.20
2022-08-25T13:40:33.874Z,4.38
2022-08-25T13:43:27.516Z,3.80
2022-08-25T13:45:54.917Z,3.97
2022-08-25T13:48:49.552Z,3.78
2022-08-25T13:51:31.220Z,3.80
2022-08-25T13:56:41.833Z,4.35
2022-08-25T13:59:29.881Z,4.28
2022-08-25T14:01:57.455Z,4.03
2022-08-25T14:04:33.124Z,4.45
2022-08-25T14:07:08.890Z,6.05
2022-08-25T14:10:22.140Z,5.28
2022-08-25T14:13:09.014Z,4.50
2022-08-25T14:15:38.390Z,4.75
2022-08-25T14:18:35.195Z,5.28
2022-08-25T14:21:11.119Z,5.70
2022-08-25T14:23:39.262Z,5.45
2022-08-25T14:26:06.485Z,4.63
2022-08-25T14:28:34.077Z,4.60
2022-08-25T14:31:23.797Z,5.28
2022-08-25T14:34:25.565Z,5.47
2022-08-25T14:36:57.200Z,4.97
2022-08-25T14:39:25.482Z,5.35
2022-08-25T14:41:53.330Z,5.47
2022-08-25T14:44:21.745Z,4.80
2022-08-25T14:46:55.645Z,5.35
2022-08-25T14:49:33.878Z,4.70
2022-08-25T14:54:58.179Z,5.97
2022-08-25T14:57:26.522Z,5.38
2022-08-25T14:59:53.921Z,6.15
2022-08-25T15:02:29.741Z,6.35
2022-08-25T15:05:05.917Z,5.53
2022-08-25T15:07:52.837Z,5.18
2022-08-25T15:10:21.681Z,4.95
2022-08-25T15:12:51.165Z,5.85
2022-08-25T15:15:21.526Z,5.97
2022-08-25T15:17:49.413Z,4.53
2022-08-25T15:20:18.077Z,4.82
2022-08-25T15:22:48.100Z,5.18
2022-08-25T15:25:15.889Z,5.53
2022-08-25T15:27:44.724Z,5.97
2022-08-25T15:30:13.024Z,5.32
2022-08-25T15:32:40.275Z,7.03
2022-08-25T15:35:07.823Z,5.65
2022-08-25T15:37:35.774Z,5.13
2022-08-25T15:40:07.038Z,6.75
2022-08-25T15:42:37.280Z,5.20
2022-08-25T15:45:11.310Z,5.35
2022-08-25T15:47:38.444Z,5.80
2022-08-25T15:50:15.037Z,5.43
2022-08-25T15:52:48.569Z,5.72
2022-08-25T15:55:17.259Z,5.20
2022-08-25T15:57:44.354Z,5.70
2022-08-25T16:00:13.732Z,5.57
2022-08-25T16:02:45.495Z,5.65
2022-08-25T16:05:16.469Z,5.75
2022-08-25T16:07:46.120Z,5.25
2022-08-25T16:10:19.201Z,6.05
2022-08-25T16:12:46.226Z,6.07
2022-08-25T16:15:13.496Z,5.32
2022-08-25T16:17:43.742Z,5.20
2022-08-25T16:22:41.583Z,5.82
2022-08-25T16:25:10.747Z,5.60
2022-08-25T16:27:39.046Z,5.22
2022-08-25T16:30:10.389Z,5.28
2022-08-25T16:32:41.195Z,5.53
2022-08-25T16:35:11.096Z,5.40
2022-08-25T16:37:39.109Z,5.53
2022-08-25T16:40:13.565Z,5.15
2022-08-25T16:42:42.473Z,5.57
2022-08-25T16:45:10.164Z,5.85
2022-08-25T16:47:38.158Z,5.78
2022-08-25T16:50:10.741Z,5.68
2022-08-25T16:52:58.336Z,5.05
2022-08-25T16:55:29.094Z,5.95
2022-08-25T16:58:06.444Z,5.25
2022-08-25T17:00:36.998Z,5.28
2022-08-25T17:03:06.914Z,4.97
2022-08-25T17:05:41.960Z,5.47
2022-08-25T17:08:28.148Z,4.75
2022-08-25T17:11:09.074Z,5.90
2022-08-25T17:13:39.070Z,5.45
2022-08-25T17:16:14.752Z,6.18
2022-08-25T17:18:43.132Z,5.68
2022-08-25T17:21:23.800Z,5.38
2022-08-25T17:23:53.254Z,5.60
2022-08-25T17:26:27.929Z,5.43
2022-08-25T17:29:02.094Z,4.95
2022-08-25T17:31:30.860Z,5.85
2022-08-25T17:33:58.411Z,5.15
2022-08-25T17:36:27.124Z,5.32
2022-08-25T17:38:56.802Z,5.75
2022-08-25T17:41:24.452Z,5.40
2022-08-25T17:43:51.688Z,5.35
2022-08-25T17:46:18.833Z,5.28
2022-08-25T17:48:46.259Z,5.50
2022-08-25T17:51:15.967Z,5.63
2022-08-25T17:53:44.081Z,5.65
2022-08-25T17:56:18.482Z,4.82
2022-08-25T17:58:47.204Z,5.30
2022-08-25T18:01:27.520Z,5.55
2022-08-25T18:03:57.364Z,5.18
2022-08-25T18:06:27.009Z,5.70
2022-08-25T18:09:00.003Z,6.68
2022-08-25T18:11:28.808Z,6.15
2022-08-25T18:13:57.831Z,5.45
2022-08-25T18:16:26.109Z,5.57
2022-08-25T18:18:55.081Z,5.70
2022-08-25T18:21:30.326Z,5.78
2022-08-25T18:23:59.914Z,5.10
2022-08-25T18:26:32.228Z,5.82
2022-08-25T18:29:00.012Z,6.88
2022-08-25T18:31:27.749Z,5.95
2022-08-25T18:33:54.961Z,6.88
2022-08-25T18:36:22.627Z,5.68
2022-08-25T18:39:09.707Z,6.68
2022-08-25T18:41:40.597Z,6.25
2022-08-25T18:44:10.588Z,6.30
2022-08-25T18:46:39.465Z,6.15
2022-08-25T18:49:06.556Z,7.00
2022-08-25T18:51:36.040Z,6.75
2022-08-25T18:54:05.069Z,6.40
2022-08-25T18:56:33.524Z,6.90
2022-08-25T18:59:00.674Z,6.45
2022-08-25T19:01:27.937Z,8.18
2022-08-25T19:03:57.256Z,6.70
2022-08-25T19:06:24.356Z,7.80
2022-08-25T19:08:51.589Z,7.50
2022-08-25T19:11:22.234Z,6.75
2022-08-25T19:13:51.026Z,7.23
2022-08-25T19:16:34.953Z,7.10
2022-08-25T19:19:13.245Z,6.90
2022-08-25T19:21:42.082Z,6.93
2022-08-25T19:24:11.854Z,6.28
2022-08-25T19:26:39.610Z,7.60
2022-08-25T19:29:15.540Z,6.85
2022-08-25T19:31:46.822Z,7.22
2022-08-25T19:34:21.723Z,6.95
2022-08-25T19:36:50.908Z,7.32
2022-08-25T19:39:19.026Z,7.18
2022-08-25T19:41:47.021Z,7.30
2022-08-25T19:44:16.232Z,6.70
2022-08-25T19:46:45.234Z,6.45
2022-08-25T19:49:21.458Z,6.93
2022-08-25T19:51:53.013Z,6.47
2022-08-25T19:54:26.652Z,7.43
2022-08-25T19:56:55.600Z,7.05
2022-08-25T19:59:40.467Z,6.20
2022-08-25T20:02:17.682Z,7.05
2022-08-25T20:04:49.356Z,6.32
2022-08-25T20:07:24.965Z,8.88
2022-08-25T20:09:57.501Z,6.82
2022-08-25T20:12:27.081Z,7.25
2022-08-25T20:14:55.354Z,6.63
2022-08-25T20:17:26.121Z,7.07
2022-08-25T20:20:06.242Z,6.60
2022-08-25T20:22:34.143Z,6.75
2022-08-25T20:25:13.200Z,6.53
2022-08-25T20:27:52.364Z,7.53
2022-08-25T20:30:28.440Z,7.25
2022-08-25T20:32:58.213Z,7.15
2022-08-25T20:35:27.307Z,7.35
2022-08-25T20:37:58.101Z,7.35
2022-08-25T20:40:28.264Z,7.70
2022-08-25T20:42:57.542Z,7.15
2022-08-25T20:45:24.900Z,8.02
2022-08-25T20:47:54.884Z,6.40
2022-08-25T20:50:23.710Z,7.03
2022-08-25T20:52:54.152Z,6.70
2022-08-25T20:55:21.839Z,6.97
2022-08-25T20:57:49.350Z,7.53
2022-08-25T21:00:23.673Z,7.78
2022-08-25T21:02:52.798Z,7.30
2022-08-25T21:05:22.922Z,6.35
2022-08-25T21:07:49.987Z,7.45
2022-08-25T21:10:17.698Z,7.63
2022-08-25T21:12:45.503Z,7.15
2022-08-25T21:15:17.995Z,7.88
2022-08-25T21:17:48.768Z,6.82
2022-08-25T21:20:16.410Z,7.70
2022-08-25T21:22:43.485Z,7.72
2022-08-25T21:25:10.925Z,7.82
2022-08-25T21:27:38.052Z,7.60
2022-08-25T21:30:07.361Z,7.20
2022-08-25T21:32:34.994Z,6.43
2022-08-25T21:35:02.324Z,7.72
2022-08-25T21:37:34.201Z,6.45
2022-08-25T21:40:06.988Z,7.05
2022-08-25T21:42:35.936Z,7.07
2022-08-25T21:45:03.586Z,7.85
2022-08-25T21:47:34.259Z,7.47
2022-08-25T21:50:02.079Z,7.65
2022-08-25T21:52:31.900Z,8.27
2022-08-25T21:55:05.423Z,7.07
2022-08-25T21:57:33.225Z,7.13
2022-08-25T22:00:08.021Z,7.10
2022-08-25T22:02:36.119Z,7.47
2022-08-25T22:05:03.220Z,7.45
2022-08-25T22:07:40.481Z,6.70
2022-08-25T22:10:16.570Z,7.88
2022-08-25T22:12:46.361Z,7.25
2022-08-25T22:15:15.599Z,8.10
2022-08-25T22:17:44.454Z,7.00
2022-08-25T22:20:12.239Z,7.85
2022-08-25T22:22:39.872Z,7.95
2022-08-25T22:25:07.241Z,9.00
2022-08-25T22:27:35.323Z,7.68
2022-08-25T22:30:02.519Z,8.50
2022-08-25T22:32:30.444Z,7.88
2022-08-25T22:34:57.423Z,7.45
2022-08-25T22:37:24.448Z,8.20
2022-08-25T22:39:51.611Z,7.35
2022-08-25T22:42:19.555Z,8.13
2022-08-25T22:44:54.011Z,7.72
2022-08-25T22:47:21.511Z,7.80
2022-08-25T22:49:49.118Z,8.20
2022-08-25T22:52:16.274Z,7.18
2022-08-25T22:54:44.192Z,8.48
2022-08-25T22:57:12.099Z,8.82
2022-08-25T22:59:40.091Z,8.93
2022-08-25T23:02:08.554Z,7.85
2022-08-25T23:04:41.591Z,8.55
2022-08-25T23:07:11.472Z,7.70
2022-08-25T23:09:39.087Z,8.23
2022-08-25T23:12:06.897Z,8.45
2022-08-25T23:14:38.506Z,8.40
2022-08-25T23:17:09.594Z,8.82
2022-08-25T23:19:36.747Z,8.15
2022-08-25T23:22:10.628Z,8.70
2022-08-25T23:24:42.596Z,8.77
2022-08-25T23:27:14.503Z,9.10
2022-08-25T23:29:47.274Z,8.40
2022-08-25T23:32:17.762Z,8.77
2022-08-25T23:34:47.153Z,9.73
2022-08-25T23:37:16.172Z,9.88
2022-08-25T23:39:46.337Z,9.98
2022-08-25T23:42:17.035Z,9.10
2022-08-25T23:44:45.415Z,8.32
2022-08-25T23:47:12.668Z,9.18
2022-08-25T23:49:40.042Z,9.23
2022-08-25T23:52:07.507Z,9.48
2022-08-25T23:54:37.345Z,10.80
2022-08-25T23:57:06.786Z,9.07
2022-08-25T23:59:34.191Z,10.27
